sensor_id;sensor_type;location;lat;lon;timestamp;pressure;altitude;pressure_sealevel;temperature;humidity
22662;BME280;11497;52.222;21.246;2023-01-10T00:01:41;99470.72;;;6.96;100.00
22662;BME280;11497;52.222;21.246;2023-01-10T00:04:08;99475.78;;;7.00;100.00
22662;BME280;11497;52.222;21.246;2023-01-10T00:06:37;99470.19;;;6.86;100.00
22662;BME280;11497;52.222;21.246;2023-01-10T00:09:05;99480.69;;;6.83;100.00
22662;BME280;11497;52.222;21.246;2023-01-10T00:11:33;99481.16;;;6.94;100.00
22662;BME280;11497;52.222;21.246;2023-01-10T00:14:19;99481.41;;;6.88;100.00
22662;BME280;11497;52.222;21.246;2023-01-10T00:16:47;99488.56;;;6.82;100.00
22662;BME280;11497;52.222;21.246;2023-01-10T00:19:15;99496.88;;;6.93;100.00
22662;BME280;11497;52.222;21.246;2023-01-10T00:21:43;99496.38;;;7.07;100.00
22662;BME280;11497;52.222;21.246;2023-01-10T00:24:11;99496.28;;;7.10;100.00
22662;BME280;11497;52.222;21.246;2023-01-10T00:26:50;99490.88;;;7.16;100.00
22662;BME280;11497;52.222;21.246;2023-01-10T00:29:25;99496.63;;;6.99;100.00
22662;BME280;11497;52.222;21.246;2023-01-10T00:31:58;99505.63;;;6.90;100.00
22662;BME280;11497;52.222;21.246;2023-01-10T00:34:26;99507.09;;;6.97;100.00
22662;BME280;11497;52.222;21.246;2023-01-10T00:36:54;99513.78;;;7.05;100.00
22662;BME280;11497;52.222;21.246;2023-01-10T00:39:21;99521.69;;;7.01;100.00
22662;BME280;11497;52.222;21.246;2023-01-10T00:41:53;99520.69;;;7.06;100.00
22662;BME280;11497;52.222;21.246;2023-01-10T00:44:40;99528.91;;;6.93;100.00
22662;BME280;11497;52.222;21.246;2023-01-10T00:47:08;99535.13;;;6.89;100.00
22662;BME280;11497;52.222;21.246;2023-01-10T00:49:35;99530.72;;;6.91;100.00
22662;BME280;11497;52.222;21.246;2023-01-10T00:52:03;99530.06;;;6.85;100.00
22662;BME280;11497;52.222;21.246;2023-01-10T00:54:31;99532.81;;;7.07;100.00
22662;BME280;11497;52.222;21.246;2023-01-10T00:56:59;99533.31;;;6.91;100.00
22662;BME280;11497;52.222;21.246;2023-01-10T00:59:27;99521.41;;;6.84;100.00
22662;BME280;11497;52.222;21.246;2023-01-10T01:01:56;99533.50;;;6.85;100.00
22662;BME280;11497;52.222;21.246;2023-01-10T01:04:24;99536.03;;;6.88;100.00
22662;BME280;11497;52.222;21.246;2023-01-10T01:06:52;99544.50;;;6.93;100.00
22662;BME280;11497;52.222;21.246;2023-01-10T01:09:19;99550.06;;;6.83;100.00
22662;BME280;11497;52.222;21.246;2023-01-10T01:11:47;99539.00;;;6.76;100.00
22662;BME280;11497;52.222;21.246;2023-01-10T01:14:15;99549.31;;;6.79;100.00
22662;BME280;11497;52.222;21.246;2023-01-10T01:16:43;99555.19;;;6.86;100.00
22662;BME280;11497;52.222;21.246;2023-01-10T01:19:11;99552.72;;;6.81;100.00
22662;BME280;11497;52.222;21.246;2023-01-10T01:21:39;99557.06;;;6.81;100.00
22662;BME280;11497;52.222;21.246;2023-01-10T01:24:11;99560.28;;;6.89;100.00
22662;BME280;11497;52.222;21.246;2023-01-10T01:26:39;99560.91;;;6.95;100.00
22662;BME280;11497;52.222;21.246;2023-01-10T01:29:09;99559.00;;;7.00;100.00
22662;BME280;11497;52.222;21.246;2023-01-10T01:31:37;99559.53;;;6.85;100.00
22662;BME280;11497;52.222;21.246;2023-01-10T01:34:04;99573.63;;;6.78;100.00
22662;BME280;11497;52.222;21.246;2023-01-10T01:36:33;99581.94;;;6.89;100.00
22662;BME280;11497;52.222;21.246;2023-01-10T01:39:00;99576.84;;;6.86;100.00
22662;BME280;11497;52.222;21.246;2023-01-10T01:41:28;99569.63;;;6.94;100.00
22662;BME280;11497;52.222;21.246;2023-01-10T01:44:17;99571.44;;;6.92;100.00
22662;BME280;11497;52.222;21.246;2023-01-10T01:47:17;99573.63;;;6.78;100.00
22662;BME280;11497;52.222;21.246;2023-01-10T01:49:44;99589.03;;;6.84;100.00
22662;BME280;11497;52.222;21.246;2023-01-10T01:52:22;99575.13;;;6.85;100.00
22662;BME280;11497;52.222;21.246;2023-01-10T01:54:52;99578.81;;;6.78;100.00
22662;BME280;11497;52.222;21.246;2023-01-10T01:57:25;99577.19;;;6.74;100.00
22662;BME280;11497;52.222;21.246;2023-01-10T01:59:55;99579.84;;;6.73;100.00
22662;BME280;11497;52.222;21.246;2023-01-10T02:02:29;99591.00;;;6.76;100.00
22662;BME280;11497;52.222;21.246;2023-01-10T02:05:02;99581.50;;;6.75;100.00
22662;BME280;11497;52.222;21.246;2023-01-10T02:07:35;99587.50;;;6.77;100.00
22662;BME280;11497;52.222;21.246;2023-01-10T02:10:14;99588.38;;;6.78;100.00
22662;BME280;11497;52.222;21.246;2023-01-10T02:12:46;99592.53;;;6.83;100.00
22662;BME280;11497;52.222;21.246;2023-01-10T02:15:17;99595.22;;;6.80;100.00
22662;BME280;11497;52.222;21.246;2023-01-10T02:17:50;99598.84;;;6.75;100.00
22662;BME280;11497;52.222;21.246;2023-01-10T02:20:20;99605.66;;;6.79;100.00
22662;BME280;11497;52.222;21.246;2023-01-10T02:37:07;99611.69;;;6.81;100.00
22662;BME280;11497;52.222;21.246;2023-01-10T02:43:10;99609.63;;;6.62;100.00
22662;BME280;11497;52.222;21.246;2023-01-10T02:45:49;99615.66;;;6.63;100.00
22662;BME280;11497;52.222;21.246;2023-01-10T02:48:19;99611.41;;;6.60;100.00
22662;BME280;11497;52.222;21.246;2023-01-10T02:51:27;99606.31;;;6.57;100.00
22662;BME280;11497;52.222;21.246;2023-01-10T02:54:10;99610.38;;;6.66;100.00
22662;BME280;11497;52.222;21.246;2023-01-10T03:02:43;99625.94;;;6.67;100.00
22662;BME280;11497;52.222;21.246;2023-01-10T03:07:42;99628.50;;;6.69;100.00
22662;BME280;11497;52.222;21.246;2023-01-10T03:15:37;99634.75;;;6.62;100.00
22662;BME280;11497;52.222;21.246;2023-01-10T03:18:15;99643.38;;;6.64;100.00
22662;BME280;11497;52.222;21.246;2023-01-10T03:20:46;99640.13;;;6.56;100.00
22662;BME280;11497;52.222;21.246;2023-01-10T03:23:16;99629.47;;;6.65;100.00
22662;BME280;11497;52.222;21.246;2023-01-10T03:25:47;99636.63;;;6.57;100.00
22662;BME280;11497;52.222;21.246;2023-01-10T03:28:25;99643.19;;;6.70;100.00
22662;BME280;11497;52.222;21.246;2023-01-10T03:31:23;99643.38;;;6.64;100.00
22662;BME280;11497;52.222;21.246;2023-01-10T03:33:53;99653.84;;;6.61;100.00
22662;BME280;11497;52.222;21.246;2023-01-10T03:39:56;99664.09;;;6.67;100.00
22662;BME280;11497;52.222;21.246;2023-01-10T03:45:28;99674.19;;;6.78;100.00
22662;BME280;11497;52.222;21.246;2023-01-10T03:48:02;99669.97;;;6.74;100.00
22662;BME280;11497;52.222;21.246;2023-01-10T03:50:32;99677.97;;;6.66;100.00
22662;BME280;11497;52.222;21.246;2023-01-10T03:53:02;99676.28;;;6.65;100.00
22662;BME280;11497;52.222;21.246;2023-01-10T03:55:31;99675.28;;;6.69;100.00
22662;BME280;11497;52.222;21.246;2023-01-10T03:57:59;99684.75;;;6.72;100.00
22662;BME280;11497;52.222;21.246;2023-01-10T04:00:27;99686.28;;;6.79;100.00
22662;BME280;11497;52.222;21.246;2023-01-10T04:02:55;99691.44;;;6.80;100.00
22662;BME280;11497;52.222;21.246;2023-01-10T04:05:26;99684.91;;;6.95;100.00
22662;BME280;11497;52.222;21.246;2023-01-10T04:07:54;99689.56;;;6.85;100.00
22662;BME280;11497;52.222;21.246;2023-01-10T04:10:21;99694.59;;;6.91;100.00
22662;BME280;11497;52.222;21.246;2023-01-10T04:12:51;99697.78;;;6.99;100.00
22662;BME280;11497;52.222;21.246;2023-01-10T04:15:19;99698.25;;;6.84;100.00
22662;BME280;11497;52.222;21.246;2023-01-10T04:17:47;99703.72;;;6.75;100.00
22662;BME280;11497;52.222;21.246;2023-01-10T04:20:15;99704.78;;;6.68;100.00
22662;BME280;11497;52.222;21.246;2023-01-10T04:22:45;99706.63;;;6.64;100.00
22662;BME280;11497;52.222;21.246;2023-01-10T04:25:13;99706.63;;;6.64;100.00
22662;BME280;11497;52.222;21.246;2023-01-10T04:27:41;99712.75;;;6.62;100.00
22662;BME280;11497;52.222;21.246;2023-01-10T04:30:10;99717.88;;;6.65;100.00
22662;BME280;11497;52.222;21.246;2023-01-10T04:32:38;99721.13;;;6.73;100.00
22662;BME280;11497;52.222;21.246;2023-01-10T04:35:06;99726.25;;;6.76;100.00
22662;BME280;11497;52.222;21.246;2023-01-10T04:37:34;99722.94;;;6.70;100.00
22662;BME280;11497;52.222;21.246;2023-01-10T04:40:02;99727.69;;;6.86;100.00
22662;BME280;11497;52.222;21.246;2023-01-10T04:42:30;99723.03;;;6.66;100.00
22662;BME280;11497;52.222;21.246;2023-01-10T04:44:58;99731.78;;;6.64;100.00
22662;BME280;11497;52.222;21.246;2023-01-10T04:47:25;99741.31;;;6.63;100.00
22662;BME280;11497;52.222;21.246;2023-01-10T04:49:53;99743.91;;;6.63;100.00
22662;BME280;11497;52.222;21.246;2023-01-10T04:52:21;99757.44;;;6.76;100.00
22662;BME280;11497;52.222;21.246;2023-01-10T04:54:51;99754.25;;;6.66;100.00
22662;BME280;11497;52.222;21.246;2023-01-10T04:57:19;99762.19;;;6.60;100.00
22662;BME280;11497;52.222;21.246;2023-01-10T04:59:47;99778.72;;;6.58;100.00
22662;BME280;11497;52.222;21.246;2023-01-10T05:02:15;99777.00;;;6.58;100.00
22662;BME280;11497;52.222;21.246;2023-01-10T05:04:43;99780.19;;;6.68;100.00
22662;BME280;11497;52.222;21.246;2023-01-10T05:07:11;99787.19;;;6.66;100.00
22662;BME280;11497;52.222;21.246;2023-01-10T05:09:39;99793.03;;;6.74;100.00
22662;BME280;11497;52.222;21.246;2023-01-10T05:12:07;99794.09;;;6.67;100.00
22662;BME280;11497;52.222;21.246;2023-01-10T05:14:35;99800.16;;;6.67;100.00
22662;BME280;11497;52.222;21.246;2023-01-10T05:17:03;99797.75;;;6.60;100.00
22662;BME280;11497;52.222;21.246;2023-01-10T05:19:31;99800.75;;;6.77;100.00
22662;BME280;11497;52.222;21.246;2023-01-10T05:21:58;99806.81;;;6.78;100.00
22662;BME280;11497;52.222;21.246;2023-01-10T05:24:26;99806.91;;;6.75;100.00
22662;BME280;11497;52.222;21.246;2023-01-10T05:26:54;99809.63;;;6.70;100.00
22662;BME280;11497;52.222;21.246;2023-01-10T05:29:22;99814.91;;;6.67;100.00
22662;BME280;11497;52.222;21.246;2023-01-10T05:31:50;99819.13;;;6.71;100.00
22662;BME280;11497;52.222;21.246;2023-01-10T05:34:18;99823.28;;;6.78;100.00
22662;BME280;11497;52.222;21.246;2023-01-10T05:36:46;99821.81;;;6.68;100.00
22662;BME280;11497;52.222;21.246;2023-01-10T05:39:14;99825.22;;;6.70;100.00
22662;BME280;11497;52.222;21.246;2023-01-10T05:41:42;99833.19;;;6.64;100.00
22662;BME280;11497;52.222;21.246;2023-01-10T05:44:10;99835.63;;;6.70;100.00
22662;BME280;11497;52.222;21.246;2023-01-10T05:46:37;99844.41;;;6.66;100.00
22662;BME280;11497;52.222;21.246;2023-01-10T05:49:05;99852.34;;;6.60;100.00
22662;BME280;11497;52.222;21.246;2023-01-10T05:51:33;99844.69;;;6.54;100.00
22662;BME280;11497;52.222;21.246;2023-01-10T05:54:01;99856.13;;;6.48;100.00
22662;BME280;11497;52.222;21.246;2023-01-10T05:56:29;99860.31;;;6.54;100.00
22662;BME280;11497;52.222;21.246;2023-01-10T05:58:57;99876.59;;;6.60;100.00
22662;BME280;11497;52.222;21.246;2023-01-10T06:01:38;99881.16;;;6.51;100.00
22662;BME280;11497;52.222;21.246;2023-01-10T06:04:05;99883.78;;;6.51;100.00
22662;BME280;11497;52.222;21.246;2023-01-10T06:06:33;99887.03;;;6.59;100.00
22662;BME280;11497;52.222;21.246;2023-01-10T06:09:01;99890.72;;;6.50;100.00
22662;BME280;11497;52.222;21.246;2023-01-10T06:11:29;99895.00;;;6.53;100.00
22662;BME280;11497;52.222;21.246;2023-01-10T06:13:57;99900.13;;;6.56;100.00
22662;BME280;11497;52.222;21.246;2023-01-10T06:16:25;99913.84;;;6.61;100.00
22662;BME280;11497;52.222;21.246;2023-01-10T06:18:53;99910.59;;;6.53;100.00
22662;BME280;11497;52.222;21.246;2023-01-10T06:21:21;99909.72;;;6.52;100.00
22662;BME280;11497;52.222;21.246;2023-01-10T06:23:49;99913.28;;;6.50;100.00
22662;BME280;11497;52.222;21.246;2023-01-10T06:26:16;99914.91;;;6.54;100.00
22662;BME280;11497;52.222;21.246;2023-01-10T06:28:45;99924.47;;;6.52;100.00
22662;BME280;11497;52.222;21.246;2023-01-10T06:31:13;99920.91;;;6.56;100.00
22662;BME280;11497;52.222;21.246;2023-01-10T06:33:41;99921.09;;;6.50;100.00
22662;BME280;11497;52.222;21.246;2023-01-10T06:36:10;99928.03;;;6.49;100.00
22662;BME280;11497;52.222;21.246;2023-01-10T06:38:38;99934.66;;;6.61;100.00
22662;BME280;11497;52.222;21.246;2023-01-10T06:41:06;99940.06;;;6.52;100.00
22662;BME280;11497;52.222;21.246;2023-01-10T06:43:44;99946.16;;;6.51;100.00
22662;BME280;11497;52.222;21.246;2023-01-10T06:46:14;99943.28;;;6.63;100.00
22662;BME280;11497;52.222;21.246;2023-01-10T06:48:44;99952.03;;;6.59;100.00
22662;BME280;11497;52.222;21.246;2023-01-10T06:51:14;99950.44;;;6.53;100.00
22662;BME280;11497;52.222;21.246;2023-01-10T06:53:42;99960.84;;;6.53;100.00
22662;BME280;11497;52.222;21.246;2023-01-10T06:56:10;99965.94;;;6.58;100.00
22662;BME280;11497;52.222;21.246;2023-01-10T06:58:39;99964.03;;;6.64;100.00
22662;BME280;11497;52.222;21.246;2023-01-10T07:01:14;99966.72;;;6.61;100.00
22662;BME280;11497;52.222;21.246;2023-01-10T07:03:43;99970.91;;;6.67;100.00
22662;BME280;11497;52.222;21.246;2023-01-10T07:06:11;99976.03;;;6.70;100.00
22662;BME280;11497;52.222;21.246;2023-01-10T07:08:41;99971.75;;;6.69;100.00
22662;BME280;11497;52.222;21.246;2023-01-10T07:11:10;99981.63;;;6.53;100.00
22662;BME280;11497;52.222;21.246;2023-01-10T07:13:39;99988.69;;;6.50;100.00
22662;BME280;11497;52.222;21.246;2023-01-10T07:16:13;99989.41;;;6.55;100.00
22662;BME280;11497;52.222;21.246;2023-01-10T07:18:42;99989.13;;;6.67;100.00
22662;BME280;11497;52.222;21.246;2023-01-10T07:21:11;99991.44;;;6.79;100.00
22662;BME280;11497;52.222;21.246;2023-01-10T07:23:39;99989.78;;;6.75;100.00
22662;BME280;11497;52.222;21.246;2023-01-10T07:26:09;99990.88;;;6.66;100.00
22662;BME280;11497;52.222;21.246;2023-01-10T07:28:38;99988.13;;;6.73;100.00
22662;BME280;11497;52.222;21.246;2023-01-10T07:31:05;99991.13;;;6.91;100.00
22662;BME280;11497;52.222;21.246;2023-01-10T07:33:33;99988.53;;;6.91;100.00
22662;BME280;11497;52.222;21.246;2023-01-10T07:36:01;99979.19;;;6.84;100.00
22662;BME280;11497;52.222;21.246;2023-01-10T07:38:30;99971.69;;;7.05;100.00
22662;BME280;11497;52.222;21.246;2023-01-10T07:40:59;99983.97;;;6.99;100.00
22662;BME280;11497;52.222;21.246;2023-01-10T07:43:28;99993.88;;;6.85;100.00
22662;BME280;11497;52.222;21.246;2023-01-10T07:45:59;99998.19;;;6.86;100.00
22662;BME280;11497;52.222;21.246;2023-01-10T07:48:28;99996.78;;;6.73;100.00
22662;BME280;11497;52.222;21.246;2023-01-10T07:50:59;99999.31;;;6.76;100.00
22662;BME280;11497;52.222;21.246;2023-01-10T07:53:28;100000.25;;;7.08;100.00
22662;BME280;11497;52.222;21.246;2023-01-10T07:56:03;100001.63;;;6.88;100.00
22662;BME280;11497;52.222;21.246;2023-01-10T07:58:31;100008.69;;;6.83;100.00
22662;BME280;11497;52.222;21.246;2023-01-10T08:01:01;100006.06;;;6.83;100.00
22662;BME280;11497;52.222;21.246;2023-01-10T08:03:30;100006.50;;;7.00;100.00
22662;BME280;11497;52.222;21.246;2023-01-10T08:06:01;100012.53;;;7.03;100.00
22662;BME280;11497;52.222;21.246;2023-01-10T08:08:29;100009.31;;;6.93;100.00
22662;BME280;11497;52.222;21.246;2023-01-10T08:10:57;100017.38;;;7.16;100.00
22662;BME280;11497;52.222;21.246;2023-01-10T08:13:32;100035.88;;;7.06;100.00
22662;BME280;11497;52.222;21.246;2023-01-10T08:16:04;100031.63;;;7.01;100.00
22662;BME280;11497;52.222;21.246;2023-01-10T08:18:33;100033.22;;;7.07;100.00
22662;BME280;11497;52.222;21.246;2023-01-10T08:21:01;100042.91;;;7.00;100.00
22662;BME280;11497;52.222;21.246;2023-01-10T08:23:29;100044.03;;;6.92;100.00
22662;BME280;11497;52.222;21.246;2023-01-10T08:25:58;100051.69;;;6.96;100.00
22662;BME280;11497;52.222;21.246;2023-01-10T08:28:27;100060.31;;;6.98;100.00
22662;BME280;11497;52.222;21.246;2023-01-10T08:30:55;100059.72;;;7.23;100.00
22662;BME280;11497;52.222;21.246;2023-01-10T08:33:24;100054.84;;;7.09;100.00
22662;BME280;11497;52.222;21.246;2023-01-10T08:35:52;100061.75;;;7.12;100.00
22662;BME280;11497;52.222;21.246;2023-01-10T08:38:20;100062.16;;;6.93;100.00
22662;BME280;11497;52.222;21.246;2023-01-10T08:40:47;100067.38;;;6.93;100.00
22662;BME280;11497;52.222;21.246;2023-01-10T08:43:15;100073.28;;;7.00;100.00
22662;BME280;11497;52.222;21.246;2023-01-10T08:45:43;100077.94;;;6.87;100.00
22662;BME280;11497;52.222;21.246;2023-01-10T08:48:11;100089.69;;;7.04;100.00
22662;BME280;11497;52.222;21.246;2023-01-10T08:50:39;100094.47;;;7.22;100.00
22662;BME280;11497;52.222;21.246;2023-01-10T08:53:09;100095.03;;;6.97;100.00
22662;BME280;11497;52.222;21.246;2023-01-10T08:55:37;100103.38;;;7.12;100.00
22662;BME280;11497;52.222;21.246;2023-01-10T08:58:05;100102.00;;;6.95;100.00
22662;BME280;11497;52.222;21.246;2023-01-10T09:00:33;100107.25;;;6.94;100.00
22662;BME280;11497;52.222;21.246;2023-01-10T09:03:05;100113.06;;;7.05;100.00
22662;BME280;11497;52.222;21.246;2023-01-10T09:05:33;100122.00;;;6.93;100.00
22662;BME280;11497;52.222;21.246;2023-01-10T09:08:02;100122.63;;;7.05;100.00
22662;BME280;11497;52.222;21.246;2023-01-10T09:10:30;100126.13;;;7.04;100.00
22662;BME280;11497;52.222;21.246;2023-01-10T09:12:58;100119.69;;;7.18;100.00
22662;BME280;11497;52.222;21.246;2023-01-10T09:15:30;100126.13;;;7.04;100.00
22662;BME280;11497;52.222;21.246;2023-01-10T09:18:01;100130.91;;;7.22;100.00
22662;BME280;11497;52.222;21.246;2023-01-10T09:20:32;100129.09;;;7.25;100.00
22662;BME280;11497;52.222;21.246;2023-01-10T09:23:05;100127.41;;;7.23;100.00
22662;BME280;11497;52.222;21.246;2023-01-10T09:25:33;100129.00;;;7.28;100.00
22662;BME280;11497;52.222;21.246;2023-01-10T09:28:03;100130.97;;;7.19;100.00
22662;BME280;11497;52.222;21.246;2023-01-10T09:30:32;100133.72;;;7.48;99.33
22662;BME280;11497;52.222;21.246;2023-01-10T09:33:00;100138.47;;;7.32;98.75
22662;BME280;11497;52.222;21.246;2023-01-10T09:35:29;100132.41;;;7.32;98.96
22662;BME280;11497;52.222;21.246;2023-01-10T09:37:59;100131.75;;;7.22;99.23
22662;BME280;11497;52.222;21.246;2023-01-10T09:43:19;100136.03;;;7.25;98.91
22662;BME280;11497;52.222;21.246;2023-01-10T09:45:58;100132.53;;;7.26;99.24
22662;BME280;11497;52.222;21.246;2023-01-10T09:51:37;100116.09;;;7.24;98.64
22662;BME280;11497;52.222;21.246;2023-01-10T09:54:10;100120.16;;;7.36;98.11
22662;BME280;11497;52.222;21.246;2023-01-10T09:56:40;100123.50;;;7.39;98.11
22662;BME280;11497;52.222;21.246;2023-01-10T09:59:17;100115.13;;;7.28;98.27
22662;BME280;11497;52.222;21.246;2023-01-10T10:01:47;100116.59;;;7.38;98.46
22662;BME280;11497;52.222;21.246;2023-01-10T10:04:31;100118.63;;;7.27;97.86
22662;BME280;11497;52.222;21.246;2023-01-10T10:07:00;100126.22;;;7.36;98.28
22662;BME280;11497;52.222;21.246;2023-01-10T10:09:32;100120.09;;;7.37;98.15
22662;BME280;11497;52.222;21.246;2023-01-10T10:15:20;100114.81;;;7.40;97.32
22662;BME280;11497;52.222;21.246;2023-01-10T10:20:40;100119.16;;;7.40;97.18
22662;BME280;11497;52.222;21.246;2023-01-10T10:26:16;100137.53;;;7.35;96.76
22662;BME280;11497;52.222;21.246;2023-01-10T10:34:36;100146.38;;;7.28;97.36
22662;BME280;11497;52.222;21.246;2023-01-10T10:37:32;100149.00;;;7.26;97.79
22662;BME280;11497;52.222;21.246;2023-01-10T10:40:05;100143.97;;;7.19;97.90
22662;BME280;11497;52.222;21.246;2023-01-10T10:42:42;100148.97;;;7.28;97.87
22662;BME280;11497;52.222;21.246;2023-01-10T10:45:18;100143.88;;;7.23;98.15
22662;BME280;11497;52.222;21.246;2023-01-10T10:47:55;100146.06;;;7.40;97.91
22662;BME280;11497;52.222;21.246;2023-01-10T10:50:32;100153.91;;;7.39;98.00
22662;BME280;11497;52.222;21.246;2023-01-10T10:53:01;100145.91;;;7.46;97.51
22662;BME280;11497;52.222;21.246;2023-01-10T10:55:35;100149.25;;;7.51;96.58
22662;BME280;11497;52.222;21.246;2023-01-10T10:58:06;100154.53;;;7.48;96.72
22662;BME280;11497;52.222;21.246;2023-01-10T11:00:34;100147.69;;;7.44;96.13
22662;BME280;11497;52.222;21.246;2023-01-10T11:05:46;100142.63;;;7.38;95.72
22662;BME280;11497;52.222;21.246;2023-01-10T11:08:17;100145.59;;;7.24;95.87
22662;BME280;11497;52.222;21.246;2023-01-10T11:10:53;100147.94;;;7.35;96.34
22662;BME280;11497;52.222;21.246;2023-01-10T11:16:04;100155.31;;;7.16;96.03
22662;BME280;11497;52.222;21.246;2023-01-10T11:18:33;100163.44;;;7.03;96.64
22662;BME280;11497;52.222;21.246;2023-01-10T11:21:14;100171.84;;;7.14;97.53
22662;BME280;11497;52.222;21.246;2023-01-10T11:23:52;100173.53;;;7.16;97.80
22662;BME280;11497;52.222;21.246;2023-01-10T11:29:05;100184.94;;;7.11;98.06
22662;BME280;11497;52.222;21.246;2023-01-10T11:31:35;100191.91;;;7.09;98.26
22662;BME280;11497;52.222;21.246;2023-01-10T11:34:07;100204.75;;;7.16;98.32
22662;BME280;11497;52.222;21.246;2023-01-10T11:37:00;100210.75;;;7.20;97.90
22662;BME280;11497;52.222;21.246;2023-01-10T11:39:30;100210.09;;;7.10;98.09
22662;BME280;11497;52.222;21.246;2023-01-10T11:42:28;100215.97;;;7.20;97.79
22662;BME280;11497;52.222;21.246;2023-01-10T11:47:50;100214.91;;;7.28;97.54
22662;BME280;11497;52.222;21.246;2023-01-10T11:50:30;100229.03;;;7.17;97.29
22662;BME280;11497;52.222;21.246;2023-01-10T11:52:59;100222.69;;;7.30;97.67
22662;BME280;11497;52.222;21.246;2023-01-10T11:55:29;100229.00;;;7.18;97.38
22662;BME280;11497;52.222;21.246;2023-01-10T11:58:08;100221.09;;;7.23;97.52
22662;BME280;11497;52.222;21.246;2023-01-10T12:00:44;100222.88;;;7.21;97.51
22662;BME280;11497;52.222;21.246;2023-01-10T12:03:26;100233.38;;;7.18;97.49
22662;BME280;11497;52.222;21.246;2023-01-10T12:08:35;100233.44;;;7.15;97.87
22662;BME280;11497;52.222;21.246;2023-01-10T12:11:23;100237.88;;;7.10;98.05
22662;BME280;11497;52.222;21.246;2023-01-10T12:13:58;100235.75;;;7.28;97.32
22662;BME280;11497;52.222;21.246;2023-01-10T12:16:32;100243.53;;;7.28;97.13
22662;BME280;11497;52.222;21.246;2023-01-10T12:19:03;100252.22;;;7.29;96.76
22662;BME280;11497;52.222;21.246;2023-01-10T12:21:38;100254.06;;;7.24;97.12
22662;BME280;11497;52.222;21.246;2023-01-10T12:24:23;100254.16;;;7.19;97.08
22662;BME280;11497;52.222;21.246;2023-01-10T12:26:55;100254.00;;;7.27;96.57
22662;BME280;11497;52.222;21.246;2023-01-10T12:29:33;100269.75;;;7.21;96.75
22662;BME280;11497;52.222;21.246;2023-01-10T12:32:04;100269.00;;;7.14;96.91
22662;BME280;11497;52.222;21.246;2023-01-10T12:34:49;100268.88;;;7.20;97.11
22662;BME280;11497;52.222;21.246;2023-01-10T12:37:24;100280.47;;;7.06;97.37
22662;BME280;11497;52.222;21.246;2023-01-10T12:39:59;100273.41;;;7.11;97.64
22662;BME280;11497;52.222;21.246;2023-01-10T12:42:54;100271.59;;;7.16;97.63
22662;BME280;11497;52.222;21.246;2023-01-10T12:45:49;100277.69;;;7.13;98.02
22662;BME280;11497;52.222;21.246;2023-01-10T12:48:55;100289.88;;;7.11;98.31
22662;BME280;11497;52.222;21.246;2023-01-10T12:51:29;100298.56;;;7.12;98.12
22662;BME280;11497;52.222;21.246;2023-01-10T12:54:03;100307.41;;;7.03;97.90
22662;BME280;11497;52.222;21.246;2023-01-10T12:56:32;100304.69;;;7.09;97.78
22662;BME280;11497;52.222;21.246;2023-01-10T12:59:03;100307.22;;;7.12;98.17
22662;BME280;11497;52.222;21.246;2023-01-10T13:01:36;100298.94;;;7.35;97.74
22662;BME280;11497;52.222;21.246;2023-01-10T13:04:17;100309.66;;;7.20;97.14
22662;BME280;11497;52.222;21.246;2023-01-10T13:06:49;100313.22;;;7.16;96.86
22662;BME280;11497;52.222;21.246;2023-01-10T13:09:27;100326.44;;;7.05;97.26
22662;BME280;11497;52.222;21.246;2023-01-10T13:14:55;100321.44;;;6.94;98.27
22662;BME280;11497;52.222;21.246;2023-01-10T13:22:48;100339.47;;;7.04;98.59
22662;BME280;11497;52.222;21.246;2023-01-10T13:25:23;100336.84;;;7.05;99.02
22662;BME280;11497;52.222;21.246;2023-01-10T13:31:31;100351.50;;;7.11;98.81
22662;BME280;11497;52.222;21.246;2023-01-10T13:34:09;100363.78;;;7.03;98.78
22662;BME280;11497;52.222;21.246;2023-01-10T13:37:23;100363.00;;;6.99;98.70
22662;BME280;11497;52.222;21.246;2023-01-10T13:39:35;100358.69;;;6.96;99.00
22662;BME280;11497;52.222;21.246;2023-01-10T13:55:57;100373.72;;;6.82;99.02
22662;BME280;11497;52.222;21.246;2023-01-10T13:58:42;100383.16;;;6.88;99.40
22662;BME280;11497;52.222;21.246;2023-01-10T14:01:35;100384.06;;;6.87;99.09
22662;BME280;11497;52.222;21.246;2023-01-10T14:04:38;100385.97;;;6.76;99.14
22662;BME280;11497;52.222;21.246;2023-01-10T14:07:26;100383.25;;;6.83;99.34
22662;BME280;11497;52.222;21.246;2023-01-10T14:10:19;100381.84;;;6.64;99.49
22662;BME280;11497;52.222;21.246;2023-01-10T14:13:02;100383.56;;;6.65;99.71
22662;BME280;11497;52.222;21.246;2023-01-10T14:15:41;100386.84;;;6.76;99.71
22662;BME280;11497;52.222;21.246;2023-01-10T14:18:22;100388.56;;;6.77;99.73
22662;BME280;11497;52.222;21.246;2023-01-10T14:21:22;100399.84;;;6.76;99.80
22662;BME280;11497;52.222;21.246;2023-01-10T14:23:52;100404.47;;;6.59;99.66
22662;BME280;11497;52.222;21.246;2023-01-10T14:26:37;100404.47;;;6.59;99.88
22662;BME280;11497;52.222;21.246;2023-01-10T14:29:13;100404.56;;;6.53;100.00
22662;BME280;11497;52.222;21.246;2023-01-10T14:31:44;100400.19;;;6.56;99.93
22662;BME280;11497;52.222;21.246;2023-01-10T14:34:23;100410.56;;;6.58;99.94
22662;BME280;11497;52.222;21.246;2023-01-10T14:37:02;100414.88;;;6.59;99.93
22662;BME280;11497;52.222;21.246;2023-01-10T14:39:33;100413.88;;;6.66;100.00
22662;BME280;11497;52.222;21.246;2023-01-10T14:42:06;100414.81;;;6.62;99.60
22662;BME280;11497;52.222;21.246;2023-01-10T14:44:43;100413.09;;;6.61;99.57
22662;BME280;11497;52.222;21.246;2023-01-10T14:47:32;100410.66;;;6.52;99.48
22662;BME280;11497;52.222;21.246;2023-01-10T14:50:01;100421.16;;;6.47;99.69
22662;BME280;11497;52.222;21.246;2023-01-10T14:52:30;100425.38;;;6.53;99.80